• Join FlightAware (Why Join?)
  • Login
  • US Flag 
03:11PM EDT


 

Airport Tracker/Info


-or-


 

Live Flight TrackerFlight Track Log ✈ UAL1053 ✈ 11-Apr-2013 ✈ KEWR - KCLE

Flight Track Log - Related Links

Times and Time Zones

All times are in EDT time to prevent confusion due to time zone crossing. See the UAL1053 flight status page for this flight to view local times or setup timezone preferences in your user account.

Time Position Orientation Groundspeed Altitude Reporting Facility
EDT Latitude Longitude Course Direction KTS MPH feet Rate Location/Type
07:36PM 40.7154 -74.1492 34° Northeast 158 182 2,500  Level FlightAware ADS-B
07:36PM 40.7178 -74.1471 34° Northeast 175 201 2,500 -840 Level FlightAware ADS-B
07:36PM 40.7239 -74.1418 33° Northeast 194 223 2,300 -1,140 Descending FlightAware ADS-B
07:36PM 40.7271 -74.1390 34° Northeast 213 245 2,200 -600 Descending FlightAware ADS-B
07:36PM 40.7295 -74.1370 32° Northeast 220 253 2,200  Level FlightAware ADS-B
07:36PM 40.7335 -74.1336 33° Northeast 231 266 2,200 1,260 Level FlightAware ADS-B
07:36PM 40.7424 -74.1260 33° Northeast 236 272 2,700 2,100 Climbing FlightAware ADS-B
07:37PM 40.7511 -74.1185 33° Northeast 240 276 3,300 1,800 Climbing FlightAware ADS-B
07:38PM 40.7840 -74.0900 33° Northeast 263 303 5,000 1,620 Climbing FlightAware
07:38PM 40.7900 -74.0851 32° Northeast 259 298 5,200 2,220 Climbing FlightAware ADS-B
07:38PM 40.7988 -74.0775 33° Northeast 259 298 5,900 2,820 Climbing FlightAware ADS-B
07:38PM 40.8007 -74.0759 33° Northeast 259 298 6,100 3,900 Climbing FlightAware ADS-B
07:38PM 40.8100 -74.0679 33° Northeast 258 297 7,200 4,080 Climbing FlightAware ADS-B
07:38PM 40.8114 -74.0668 31° Northeast 266 306 7,400 4,080 Climbing FlightAware ADS-B
07:39PM 40.8190 -74.0602 33° Northeast 270 311 8,300 3,960 Climbing FlightAware ADS-B
07:39PM 40.8230 -74.2283 272° West 269 310 9,000 3,480 Climbing FlightAware ADS-B
07:39PM 40.8478 -74.4385 279° West 278 320 10,800 2,340 Climbing FlightAware ADS-B
07:40PM 40.8765 -74.4794 313° West 327 376 11,500 2,400 Climbing FlightAware ADS-B
07:40PM 40.9078 -74.5264 311° West 333 383 13,300 3,540 Climbing FlightAware ADS-B
07:41PM 40.9411 -74.5747 312° West 335 386 15,200 3,420 Climbing FlightAware ADS-B
07:41PM 40.9543 -74.5939 312° West 330 380 15,900 3,120 Climbing FlightAware ADS-B
07:41PM 40.9616 -74.6128 297° West 327 376 16,500 2,700 Climbing FlightAware ADS-B
07:41PM 40.9645 -74.6311 282° West 327 376 16,800 1,500 Climbing FlightAware ADS-B
07:42PM 40.9652 -74.6440 274° West 329 379 16,900 420 Climbing FlightAware ADS-B
07:42PM 40.9650 -74.6542 269° West 330 380 16,900  Level FlightAware ADS-B
07:42PM 40.9584 -74.7267 263° West 329 379 16,900  Level FlightAware ADS-B
07:43PM 40.9524 -74.7877 263° West 328 377 16,900  Level FlightAware ADS-B
07:43PM 40.9467 -74.8490 263° West 328 377 16,900  Level FlightAware ADS-B
07:44PM 40.9407 -74.9120 263° West 329 379 16,900 60 Level FlightAware ADS-B
07:44PM 40.9349 -74.9717 263° West 334 384 17,000 1,380 Climbing FlightAware ADS-B
07:45PM 40.9282 -75.0425 263° West 339 390 18,400 2,280 Climbing FlightAware ADS-B
07:45PM 40.9223 -75.1064 263° West 349 402 19,600 2,400 Climbing FlightAware ADS-B
07:46PM 40.9187 -75.1443 263° West 351 404 20,400 2,580 Climbing FlightAware ADS-B
07:46PM 40.9137 -75.1770 259° West 351 404 21,000 2,520 Climbing FlightAware ADS-B
07:46PM 40.9007 -75.2413 255° West 354 407 22,300 2,280 Climbing FlightAware ADS-B
07:47PM 40.8881 -75.3032 255° West 361 415 23,400 2,400 Climbing FlightAware ADS-B
07:48PM 40.8726 -75.3788 255° West 360 414 24,900 2,100 Climbing FlightAware ADS-B
07:48PM 40.8585 -75.4420 254° West 368 423 25,700 1,500 Climbing FlightAware ADS-B
07:49PM 40.8426 -75.5085 252° West 381 438 26,500 900 Climbing FlightAware ADS-B
07:49PM 40.8257 -75.5787 252° West 404 465 26,700 540 Climbing FlightAware ADS-B
07:50PM 40.8080 -75.6531 253° West 417 480 27,100 1,020 Climbing FlightAware ADS-B
07:50PM 40.7889 -75.7331 253° West 424 488 27,800 1,440 Climbing FlightAware ADS-B
07:51PM 40.7706 -75.8090 252° West 427 491 28,600 1,620 Climbing FlightAware ADS-B
07:51PM 40.7521 -75.8860 252° West 425 489 29,500 1,320 Climbing FlightAware ADS-B
07:52PM 40.7334 -75.9637 252° West 417 480 30,000 420 Climbing FlightAware ADS-B
07:52PM 40.7153 -76.0387 252° West 414 476 30,000  Level FlightAware ADS-B
07:53PM 40.6980 -76.1102 252° West 413 475 30,000  Level FlightAware ADS-B
07:53PM 40.6805 -76.1821 252° West 412 474 30,000  Level FlightAware ADS-B
07:53PM 40.6748 -76.2112 256° West 413 475 30,000  Level FlightAware ADS-B
07:54PM 40.6725 -76.2359 263° West 414 476 30,000  Level FlightAware ADS-B
07:54PM 40.6722 -76.2516 269° West 414 476 30,000  Level FlightAware ADS-B
07:54PM 40.6763 -76.2908 278° West 417 480 30,000  Level FlightAware ADS-B
07:55PM 40.6916 -76.3838 282° West 418 481 30,000 780 Level FlightAware ADS-B
07:55PM 40.7052 -76.4622 283° West 416 479 30,900 1,680 Climbing FlightAware ADS-B
07:56PM 40.7189 -76.5426 283° West 412 474 31,900 960 Climbing FlightAware ADS-B
07:56PM 40.7317 -76.6187 283° West 420 483 32,000 60 Climbing FlightAware ADS-B
07:57PM 40.7451 -76.7020 282° West 418 481 32,000  Level FlightAware ADS-B
07:57PM 40.7597 -76.7877 283° West 418 481 32,000  Level FlightAware ADS-B
07:58PM 40.7766 -76.8896 282° West 418 481 32,000  Level FlightAware ADS-B
07:59PM 40.7906 -76.9741 282° West 418 481 32,000  Level FlightAware ADS-B
07:59PM 40.8108 -77.1031 282° West 418 481 32,000  Level FlightAware ADS-B
08:00PM 40.8320 -77.2346 282° West 417 480 32,000  Level FlightAware ADS-B
08:01PM 40.8443 -77.3070 283° West 414 476 32,000  Level FlightAware ADS-B
08:02PM 40.8616 -77.4161 282° West 414 476 32,000  Level FlightAware ADS-B
08:02PM 40.8736 -77.4933 282° West 414 476 32,000  Level FlightAware ADS-B
08:03PM 40.8899 -77.5963 282° West 412 474 32,000  Level FlightAware ADS-B
08:04PM 40.9142 -77.7583 282° West 410 472 32,000  Level Cleveland Center
08:05PM 40.9364 -77.9031 282° West 410 472 32,000  Level Cleveland Center
08:06PM 40.9583 -78.0508 281° West 410 472 32,000  Level Cleveland Center
08:07PM 40.9803 -78.1983 281° West 410 472 32,000  Level Cleveland Center
08:08PM 41.0039 -78.3325 283° West 410 472 32,000  Level Cleveland Center
08:09PM 41.0278 -78.4831 282° West 410 472 32,000  Level Cleveland Center
08:10PM 41.0492 -78.6339 281° West 410 472 32,000  Level Cleveland Center
08:11PM 41.0703 -78.7792 281° West 410 472 32,000  Level Cleveland Center
08:12PM 41.0933 -78.9300 282° West 410 472 32,000  Level Cleveland Center
08:13PM 41.1164 -79.0811 281° West 410 472 32,000  Level Cleveland Center
08:14PM 41.1350 -79.2461 279° West 410 472 32,000  Level Cleveland Center
08:15PM 41.1575 -79.3833 282° West 416 479 32,000 -360 Level Cleveland Center
08:16PM 41.1797 -79.5319 281° West 416 479 31,300 -900 Descending Cleveland Center
08:17PM 41.2000 -79.7028 279° West 416 479 30,300 -1,020 Descending Cleveland Center
08:18PM 41.2197 -79.8489 280° West 416 479 29,300 -1,440 Descending Cleveland Center
08:23PM 41.3250 -80.6200 280° West 369 425 21,000 -1,800 Descending FlightAware
08:24PM 41.3590 -80.7430 290° West 368 423 17,900 -3,120 Descending FlightAware
08:25PM 41.3900 -80.8230 297° West 363 418 16,400 -2,220 Descending FlightAware
08:26PM 41.4170 -80.8930 297° West 358 412 15,000 -2,220 Descending FlightAware
08:26PM 41.4510 -80.9860 296° West 348 400 13,300 -2,340 Descending FlightAware
08:27PM 41.4820 -81.0640 298° West 343 395 11,700 -2,160 Descending FlightAware
08:28PM 41.5110 -81.1470 295° West 337 388 10,300 -1,080 Descending FlightAware
08:28PM 41.5060 -81.2320 266° West 332 382 10,200 -120 Descending FlightAware
08:29PM 41.4950 -81.3110 259° West 329 379 10,200  Level FlightAware
08:30PM 41.4810 -81.3990 258° West 326 375 10,200  Level FlightAware
08:31PM 41.4700 -81.4720 259° West 279 321 10,200 -720 Level FlightAware
08:31PM 41.4620 -81.5220 258° West 275 316 9,400 -1,560 Descending FlightAware
08:31PM 41.4550 -81.5620 257° West 273 314 8,800 -1,680 Descending FlightAware
08:32PM 41.4480 -81.6140 260° West 272 313 7,900 -1,680 Descending FlightAware
08:32PM 41.4410 -81.6530 257° West 266 306 7,300 -1,080 Descending FlightAware
08:33PM 41.4310 -81.6770 241° Southwest 247 284 7,200 -180 Descending FlightAware
08:33PM 41.4120 -81.7120 234° Southwest 221 254 7,200  Level FlightAware
08:34PM 41.3970 -81.7420 236° Southwest 216 249 7,200  Level FlightAware
08:34PM 41.3820 -81.7700 234° Southwest 191 220 7,200  Level FlightAware
08:35PM 41.3690 -81.7980 238° Southwest 183 211 7,200  Level FlightAware
08:35PM 41.3560 -81.8220 234° Southwest 178 205 7,200 -780 Level FlightAware
08:35PM 41.3390 -81.8460 227° Southwest 178 205 6,500 -1,140 Descending FlightAware
08:36PM 41.3260 -81.8640 226° Southwest 177 204 6,200 -360 Descending FlightAware
08:36PM 41.3080 -81.8880 225° Southwest 177 204 6,200  Level FlightAware
08:37PM 41.2910 -81.9110 225° Southwest 177 204 6,200 -120 Level FlightAware
08:37PM 41.2770 -81.9300 226° Southwest 175 201 6,100 -1,020 Descending FlightAware
08:38PM 41.2590 -81.9560 227° Southwest 179 206 5,300 -1,440 Descending FlightAware
08:38PM 41.2460 -81.9730 225° Southwest 183 211 4,800 -1,320 Descending FlightAware
08:39PM 41.2280 -82.0000 228° Southwest 198 228 4,100 -1,560 Descending FlightAware
08:39PM 41.2270 -82.0050 255° West 203 234 3,900 -1,200 Descending FlightAware
08:39PM 41.2370 -82.0340 295° West 206 237 3,500 -1,020 Descending FlightAware
08:39PM 41.2410 -82.0400 312° West 205 236 3,400 -720 Descending FlightAware
08:40PM 41.2560 -82.0520 329° Northwest 199 229 3,200 -360 Descending FlightAware
08:40PM 41.2690 -82.0500 North 194 223 3,200  Level FlightAware
08:40PM 41.2940 -82.0310 30° Northeast 194 223 3,200  Level FlightAware
08:41PM 41.3110 -82.0130 38° Northeast 189 217 3,200  Level FlightAware
08:41PM 41.3290 -81.9850 49° Northeast 190 219 3,200 -480 Level FlightAware
08:42PM 41.3420 -81.9650 49° Northeast 180 207 2,800 -900 Descending FlightAware
08:42PM 41.3570 -81.9410 50° Northeast 156 180 2,400 -900 Descending FlightAware
08:43PM 41.3690 -81.9240 47° Northeast 144 166 2,000 -900 Descending FlightAware
08:43PM 41.3820 -81.9030 50° Northeast 142 163 1,600 -840 Descending FlightAware